KRKR/RKR METAR and TAF weather

Enter ICAO airport designator
Station Type Date Time Source
KRKR METAR 2020/09/18 07:15 UTC NOAA

KRKR 180715Z AUTO 00000KT 10SM BKN055 20/17 A3008 RMK AO2


Station Type Date Time Source
KRKR Decoded METAR 2020/09/18 07:15 UTC NOAA

Poteau, Robert S Kerr Airport, OK, United States (KRKR) 35-01-18N 094-37-17W
Sep 18, 2020 - 03:15 AM EDT / 2020.09.18 0715 UTC
Wind: Calm:0
Visibility: 10 mile(s):0
Sky conditions: mostly cloudy
Temperature: 68 F (20 C)
Dew Point: 62 F (17 C)
Relative Humidity: 82%
Pressure (altimeter): 30.08 in. Hg (1018 hPa)
ob: KRKR 180715Z AUTO 00000KT 10SM BKN055 20/17 A3008 RMK AO2
cycle: 7

Station Type Date Time Source
KRKR TAF UTC NOAA

Error!

Example: see airport list